Flight Track Log - Related Links

Times and Time Zones

All times are in EDT time to prevent confusion due to time zone crossing. See the EJA808 flight status page for this flight to view local times or setup timezone preferences in your user account.

Time Position Orientation Groundspeed Altitude Reporting Facility
EDT Latitude Longitude Course Direction KTS MPH feet Rate Location/Type
Sun 11:58:27 AM 40.8667 -74.0500 346° North 177 204 1,100  Level New York TRACON
Sun 11:59:27 AM 40.9167 -74.0667 346° North 229 264 3,500 2,350 Climbing New York TRACON
Sun 12:00:27 PM 40.9000 -74.1667 258° West 252 290 5,800 2,750 Climbing New York TRACON
Sun 12:01:27 PM 40.8833 -74.2667 258° West 296 341 9,000 2,550 Climbing New York TRACON
Sun 12:02:27 PM 40.8667 -74.3667 258° West 303 349 10,900 952 Climbing New York TRACON
Sun 12:03:33 PM 40.7833 -74.4000 197° South 305 351 11,000 1,012 Climbing New York TRACON
Sun 12:05:19 PM 40.6714 -74.5031 215° Southwest 326 375 13,800 2,096 Climbing New York Center
Sun 12:06:19 PM 40.6181 -74.6069 236° Southwest 339 390 16,800 2,083 Climbing New York Center
Sun 12:07:20 PM 40.5558 -74.7236 235° Southwest 350 403 18,000 610 Climbing New York Center
Sun 12:08:17 PM 40.4958 -74.8319 234° Southwest 367 422 18,000  Level New York Center
Sun 12:09:18 PM 40.4381 -74.9403 235° Southwest 373 429 18,000  Level New York Center
Sun 12:10:18 PM 40.3786 -75.0294 229° Southwest 365 420 18,000  Level New York Center
Sun 12:11:19 PM 40.3103 -75.1258 227° Southwest 365 420 18,000  Level New York Center
Sun 12:12:20 PM 40.2333 -75.2325 227° Southwest 365 420 18,000  Level New York Center
Sun 12:13:17 PM 40.1717 -75.3183 227° Southwest 365 420 18,000  Level New York Center
Sun 12:14:18 PM 40.1011 -75.4194 228° Southwest 352 405 18,000  Level New York Center
Sun 12:15:18 PM 40.0436 -75.5025 228° Southwest 352 405 18,000  Level New York Center
Sun 12:16:19 PM 39.9850 -75.6122 235° Southwest 346 398 18,000 -595 Level New York Center
Sun 12:17:19 PM 39.9411 -75.7147 241° Southwest 357 411 16,800 -1,714 Descending New York Center
Sun 12:18:18 PM 39.8900 -75.8383 242° Southwest 363 418 14,600 -2,168 Descending New York Center
Sun 12:19:18 PM 39.8467 -75.9244 237° Southwest 338 389 12,500 -857 Descending New York Center
Sun 12:21:20 PM 39.7167 -76.0833 223° Southwest 299 344 12,000 -852 Descending Potomac TRACON
Sun 12:22:21 PM 39.6833 -76.1833 247° West 295 339 9,900 -2,182 Descending Potomac TRACON
Sun 12:23:21 PM 39.6333 -76.2667 232° Southwest 284 327 7,600 -2,263 Descending Potomac TRACON
Sun 12:24:15 PM 39.6000 -76.3500 243° Southwest 281 323 5,600 -1,895 Descending Potomac TRACON
Sun 12:25:15 PM 39.5667 -76.4333 243° Southwest 263 303 4,000 -800 Descending Potomac TRACON
Sun 12:26:15 PM 39.5333 -76.5000 237° Southwest 221 254 4,000 -350 Level Potomac TRACON
Sun 12:27:15 PM 39.5167 -76.5667 252° West 176 203 3,300 -496 Descending Potomac TRACON
Sun 12:28:16 PM 39.4833 -76.6167 229° Southwest 164 189 3,000 -149 Descending Potomac TRACON
Sun 12:29:16 PM 39.4667 -76.6667 247° West 172 198 3,000  Level Potomac TRACON
Sun 12:30:16 PM 39.4333 -76.7167 229° Southwest 171 197 3,000  Level Potomac TRACON
Sun 12:31:16 PM 39.4000 -76.7667 229° Southwest 176 203 3,000 -50 Level Potomac TRACON
Sun 12:32:16 PM 39.3500 -76.8000 207° Southwest 179 206 2,900 -250 Descending Potomac TRACON
Sun 12:33:16 PM 39.3167 -76.7833 159° South 142 163 2,500 -200 Descending Potomac TRACON
Sun 12:34:16 PM 39.2833 -76.7500 142° Southeast 137 158 2,500 -400 Level Potomac TRACON
Sun 12:35:16 PM 39.2500 -76.7167 142° Southeast 156 180 1,700 -783 Descending Potomac TRACON
Sun 12:36:11 PM 39.2167 -76.7000 159° South 136 157 1,000 -764 Descending Potomac TRACON

Login

Don't have an account? Register now (free) for customized features, flight alerts, and more!